sensor_id;sensor_type;location;lat;lon;timestamp;pressure;altitude;pressure_sealevel;temperature;humidity
55990;BME280;41875;55.806;38.082;2024-03-07T00:02:26;100206.44;;;-2.75;36.19
55990;BME280;41875;55.806;38.082;2024-03-07T00:05:44;100200.75;;;-2.85;36.38
55990;BME280;41875;55.806;38.082;2024-03-07T00:08:52;100205.84;;;-2.83;35.96
55990;BME280;41875;55.806;38.082;2024-03-07T00:11:57;100211.16;;;-2.86;36.35
55990;BME280;41875;55.806;38.082;2024-03-07T00:15:01;100204.59;;;-2.95;36.25
55990;BME280;41875;55.806;38.082;2024-03-07T00:18:06;100200.94;;;-2.91;36.27
55990;BME280;41875;55.806;38.082;2024-03-07T00:21:10;100197.09;;;-3.03;36.59
55990;BME280;41875;55.806;38.082;2024-03-07T00:24:16;100200.56;;;-3.04;36.56
55990;BME280;41875;55.806;38.082;2024-03-07T00:27:19;100204.28;;;-3.11;37.26
55990;BME280;41875;55.806;38.082;2024-03-07T00:30:23;100197.19;;;-3.06;36.92
55990;BME280;41875;55.806;38.082;2024-03-07T00:33:27;100194.63;;;-3.08;36.82
55990;BME280;41875;55.806;38.082;2024-03-07T00:36:51;100185.84;;;-3.27;37.93
55990;BME280;41875;55.806;38.082;2024-03-07T00:39:56;100189.53;;;-3.34;38.05
55990;BME280;41875;55.806;38.082;2024-03-07T00:43:00;100188.69;;;-3.35;38.46
55990;BME280;41875;55.806;38.082;2024-03-07T00:46:04;100187.03;;;-3.38;38.78
55990;BME280;41875;55.806;38.082;2024-03-07T00:49:08;100182.13;;;-3.45;39.37
55990;BME280;41875;55.806;38.082;2024-03-07T00:52:12;100181.94;;;-3.39;39.57
55990;BME280;41875;55.806;38.082;2024-03-07T00:55:18;100187.03;;;-3.38;39.82
55990;BME280;41875;55.806;38.082;2024-03-07T00:58:21;100176.69;;;-3.38;40.19
55990;BME280;41875;55.806;38.082;2024-03-07T01:01:25;100177.75;;;-3.43;40.37
55990;BME280;41875;55.806;38.082;2024-03-07T01:04:29;100182.53;;;-3.56;41.07
55990;BME280;41875;55.806;38.082;2024-03-07T01:07:36;100175.66;;;-3.84;41.97
55990;BME280;41875;55.806;38.082;2024-03-07T01:10:42;100175.72;;;-3.86;42.13
55990;BME280;41875;55.806;38.082;2024-03-07T01:13:46;100177.72;;;-3.94;42.86
55990;BME280;41875;55.806;38.082;2024-03-07T01:16:49;100173.88;;;-4.09;43.20
55990;BME280;41875;55.806;38.082;2024-03-07T01:19:53;100169.19;;;-4.24;43.98
55990;BME280;41875;55.806;38.082;2024-03-07T01:22:57;100164.66;;;-4.18;43.66
55990;BME280;41875;55.806;38.082;2024-03-07T01:26:02;100168.00;;;-4.14;43.47
55990;BME280;41875;55.806;38.082;2024-03-07T01:29:06;100169.44;;;-4.05;43.05
55990;BME280;41875;55.806;38.082;2024-03-07T01:32:10;100160.13;;;-4.11;43.21
55990;BME280;41875;55.806;38.082;2024-03-07T01:35:13;100151.94;;;-3.97;42.71
55990;BME280;41875;55.806;38.082;2024-03-07T01:38:17;100151.69;;;-4.16;42.64
55990;BME280;41875;55.806;38.082;2024-03-07T01:41:24;100149.78;;;-4.38;43.51
55990;BME280;41875;55.806;38.082;2024-03-07T01:44:34;100146.47;;;-4.43;43.09
55990;BME280;41875;55.806;38.082;2024-03-07T01:47:37;100143.78;;;-4.67;43.00
55990;BME280;41875;55.806;38.082;2024-03-07T01:50:41;100149.09;;;-4.71;42.99
55990;BME280;41875;55.806;38.082;2024-03-07T01:53:45;100152.06;;;-4.85;43.08
55990;BME280;41875;55.806;38.082;2024-03-07T01:56:50;100144.53;;;-4.93;42.86
55990;BME280;41875;55.806;38.082;2024-03-07T02:00:01;100150.78;;;-5.00;43.39
55990;BME280;41875;55.806;38.082;2024-03-07T02:03:09;100143.84;;;-4.70;42.84
55990;BME280;41875;55.806;38.082;2024-03-07T02:06:15;100141.13;;;-4.65;43.39
55990;BME280;41875;55.806;38.082;2024-03-07T02:09:21;100130.63;;;-4.59;43.91
55990;BME280;41875;55.806;38.082;2024-03-07T02:12:26;100133.75;;;-4.49;43.11
55990;BME280;41875;55.806;38.082;2024-03-07T02:15:34;100136.34;;;-4.49;43.57
55990;BME280;41875;55.806;38.082;2024-03-07T02:18:38;100128.69;;;-4.52;43.40
55990;BME280;41875;55.806;38.082;2024-03-07T02:21:43;100134.97;;;-4.61;43.32
55990;BME280;41875;55.806;38.082;2024-03-07T02:24:47;100127.31;;;-4.64;43.88
55990;BME280;41875;55.806;38.082;2024-03-07T02:27:52;100121.97;;;-4.58;43.99
55990;BME280;41875;55.806;38.082;2024-03-07T02:30:58;100118.41;;;-4.54;43.77
55990;BME280;41875;55.806;38.082;2024-03-07T02:34:02;100121.16;;;-4.60;43.78
55990;BME280;41875;55.806;38.082;2024-03-07T02:37:09;100115.44;;;-4.70;44.53
55990;BME280;41875;55.806;38.082;2024-03-07T02:40:14;100116.13;;;-4.65;45.05
55990;BME280;41875;55.806;38.082;2024-03-07T02:43:21;100113.59;;;-4.66;45.36
55990;BME280;41875;55.806;38.082;2024-03-07T02:46:25;100110.19;;;-4.68;44.79
55990;BME280;41875;55.806;38.082;2024-03-07T02:49:28;100109.13;;;-4.61;45.29
55990;BME280;41875;55.806;38.082;2024-03-07T02:52:33;100099.34;;;-4.80;46.22
55990;BME280;41875;55.806;38.082;2024-03-07T02:55:38;100105.16;;;-4.71;45.10
55990;BME280;41875;55.806;38.082;2024-03-07T02:58:43;100105.94;;;-4.69;44.75
55990;BME280;41875;55.806;38.082;2024-03-07T03:01:46;100114.81;;;-4.78;45.07
55990;BME280;41875;55.806;38.082;2024-03-07T03:04:55;100106.34;;;-4.83;44.87
55990;BME280;41875;55.806;38.082;2024-03-07T03:08:03;100107.25;;;-4.84;45.26
55990;BME280;41875;55.806;38.082;2024-03-07T03:11:09;100104.19;;;-4.69;44.55
55990;BME280;41875;55.806;38.082;2024-03-07T03:14:16;100104.31;;;-5.02;44.82
55990;BME280;41875;55.806;38.082;2024-03-07T03:17:22;100102.75;;;-5.08;45.45
55990;BME280;41875;55.806;38.082;2024-03-07T03:20:26;100106.28;;;-5.10;45.49
55990;BME280;41875;55.806;38.082;2024-03-07T03:23:39;100107.56;;;-5.25;46.02
55990;BME280;41875;55.806;38.082;2024-03-07T03:26:43;100110.78;;;-5.17;46.25
55990;BME280;41875;55.806;38.082;2024-03-07T03:29:51;100103.72;;;-5.12;46.12
55990;BME280;41875;55.806;38.082;2024-03-07T03:32:54;100107.63;;;-4.97;45.89
55990;BME280;41875;55.806;38.082;2024-03-07T03:35:58;100102.69;;;-5.05;45.67
55990;BME280;41875;55.806;38.082;2024-03-07T03:39:06;100102.00;;;-5.11;46.03
55990;BME280;41875;55.806;38.082;2024-03-07T03:42:13;100102.59;;;-5.01;45.83
55990;BME280;41875;55.806;38.082;2024-03-07T03:45:17;100104.84;;;-5.21;45.80
55990;BME280;41875;55.806;38.082;2024-03-07T03:48:21;100103.41;;;-5.29;46.47
55990;BME280;41875;55.806;38.082;2024-03-07T03:51:27;100103.69;;;-5.40;46.62
55990;BME280;41875;55.806;38.082;2024-03-07T03:54:38;100107.59;;;-5.58;47.26
55990;BME280;41875;55.806;38.082;2024-03-07T03:57:43;100097.97;;;-5.52;46.74
55990;BME280;41875;55.806;38.082;2024-03-07T04:00:49;100094.28;;;-5.43;46.54
55990;BME280;41875;55.806;38.082;2024-03-07T04:03:53;100097.75;;;-5.44;46.91
55990;BME280;41875;55.806;38.082;2024-03-07T04:06:57;100092.22;;;-5.30;46.11
55990;BME280;41875;55.806;38.082;2024-03-07T04:10:04;100081.44;;;-5.14;45.77
55990;BME280;41875;55.806;38.082;2024-03-07T04:13:09;100081.81;;;-5.28;46.70
55990;BME280;41875;55.806;38.082;2024-03-07T04:16:14;100076.53;;;-4.94;45.54
55990;BME280;41875;55.806;38.082;2024-03-07T04:19:17;100087.59;;;-4.90;45.71
55990;BME280;41875;55.806;38.082;2024-03-07T04:22:22;100067.41;;;-5.06;46.01
55990;BME280;41875;55.806;38.082;2024-03-07T04:25:27;100072.25;;;-4.95;45.55
55990;BME280;41875;55.806;38.082;2024-03-07T04:28:31;100073.28;;;-5.00;46.06
55990;BME280;41875;55.806;38.082;2024-03-07T04:31:35;100066.53;;;-5.06;46.50
55990;BME280;41875;55.806;38.082;2024-03-07T04:34:39;100075.16;;;-5.06;46.28
55990;BME280;41875;55.806;38.082;2024-03-07T04:37:45;100067.09;;;-4.95;46.26
55990;BME280;41875;55.806;38.082;2024-03-07T04:40:57;100067.91;;;-4.94;46.28
55990;BME280;41875;55.806;38.082;2024-03-07T04:44:00;100065.72;;;-4.78;45.98
55990;BME280;41875;55.806;38.082;2024-03-07T04:47:05;100071.38;;;-4.67;45.01
55990;BME280;41875;55.806;38.082;2024-03-07T04:50:09;100071.16;;;-5.16;45.97
55990;BME280;41875;55.806;38.082;2024-03-07T04:53:15;100069.03;;;-5.31;46.77
55990;BME280;41875;55.806;38.082;2024-03-07T04:56:20;100067.72;;;-5.16;46.21
55990;BME280;41875;55.806;38.082;2024-03-07T04:59:24;100063.88;;;-5.03;45.48
55990;BME280;41875;55.806;38.082;2024-03-07T05:02:28;100062.09;;;-5.01;46.25
55990;BME280;41875;55.806;38.082;2024-03-07T05:05:31;100062.00;;;-4.69;45.40
55990;BME280;41875;55.806;38.082;2024-03-07T05:08:35;100063.53;;;-4.92;45.73
55990;BME280;41875;55.806;38.082;2024-03-07T05:11:40;100069.31;;;-4.55;45.43
55990;BME280;41875;55.806;38.082;2024-03-07T05:14:44;100068.66;;;-4.35;44.77
55990;BME280;41875;55.806;38.082;2024-03-07T05:17:48;100053.34;;;-4.41;44.50
55990;BME280;41875;55.806;38.082;2024-03-07T05:20:52;100064.53;;;-4.41;44.86
55990;BME280;41875;55.806;38.082;2024-03-07T05:23:57;100065.66;;;-3.98;44.15
55990;BME280;41875;55.806;38.082;2024-03-07T05:27:02;100070.41;;;-3.85;43.49
55990;BME280;41875;55.806;38.082;2024-03-07T05:30:07;100060.91;;;-3.59;43.15
55990;BME280;41875;55.806;38.082;2024-03-07T05:33:14;100064.00;;;-3.49;43.44
55990;BME280;41875;55.806;38.082;2024-03-07T05:36:20;100070.75;;;-3.45;43.12
55990;BME280;41875;55.806;38.082;2024-03-07T05:39:24;100052.25;;;-3.58;43.26
55990;BME280;41875;55.806;38.082;2024-03-07T05:42:29;100058.97;;;-3.54;43.29
55990;BME280;41875;55.806;38.082;2024-03-07T05:45:34;100047.44;;;-3.45;43.22
55990;BME280;41875;55.806;38.082;2024-03-07T05:48:38;100046.75;;;-3.27;42.91
55990;BME280;41875;55.806;38.082;2024-03-07T05:51:42;100047.09;;;-3.60;43.77
55990;BME280;41875;55.806;38.082;2024-03-07T05:54:48;100044.00;;;-3.70;43.95
55990;BME280;41875;55.806;38.082;2024-03-07T05:57:57;100052.97;;;-3.55;43.66
55990;BME280;41875;55.806;38.082;2024-03-07T06:01:00;100044.56;;;-3.61;43.76
55990;BME280;41875;55.806;38.082;2024-03-07T06:04:05;100042.97;;;-3.18;43.06
55990;BME280;41875;55.806;38.082;2024-03-07T06:07:09;100040.78;;;-3.05;42.42
55990;BME280;41875;55.806;38.082;2024-03-07T06:10:13;100037.50;;;-2.88;42.63
55990;BME280;41875;55.806;38.082;2024-03-07T06:13:20;100034.84;;;-2.64;41.63
55990;BME280;41875;55.806;38.082;2024-03-07T06:16:24;100032.44;;;-2.69;41.80
55990;BME280;41875;55.806;38.082;2024-03-07T06:19:28;100027.69;;;-2.57;41.84
55990;BME280;41875;55.806;38.082;2024-03-07T06:22:33;100031.13;;;-2.16;41.01
55990;BME280;41875;55.806;38.082;2024-03-07T06:25:37;100019.22;;;-2.20;41.38
55990;BME280;41875;55.806;38.082;2024-03-07T06:28:51;100027.81;;;-1.98;40.25
55990;BME280;41875;55.806;38.082;2024-03-07T06:31:54;100024.38;;;-1.99;42.02
55990;BME280;41875;55.806;38.082;2024-03-07T06:35:00;100021.97;;;-1.83;41.15
55990;BME280;41875;55.806;38.082;2024-03-07T06:38:04;100025.94;;;-1.95;41.44
55990;BME280;41875;55.806;38.082;2024-03-07T06:41:10;100021.06;;;-1.82;41.30
55990;BME280;41875;55.806;38.082;2024-03-07T06:44:16;100020.38;;;-1.66;40.22
55990;BME280;41875;55.806;38.082;2024-03-07T06:47:26;100018.94;;;-0.97;39.17
55990;BME280;41875;55.806;38.082;2024-03-07T06:50:29;100016.13;;;-0.93;39.23
55990;BME280;41875;55.806;38.082;2024-03-07T06:53:39;100011.41;;;-0.67;38.71
55990;BME280;41875;55.806;38.082;2024-03-07T06:56:43;100013.28;;;-0.69;38.42
55990;BME280;41875;55.806;38.082;2024-03-07T06:59:49;100013.22;;;-0.50;39.16
55990;BME280;41875;55.806;38.082;2024-03-07T07:02:54;100013.97;;;-0.30;38.57
55990;BME280;41875;55.806;38.082;2024-03-07T07:06:01;100013.28;;;0.18;37.74
55990;BME280;41875;55.806;38.082;2024-03-07T07:09:09;100004.03;;;0.12;37.76
55990;BME280;41875;55.806;38.082;2024-03-07T07:12:14;100012.00;;;0.09;36.36
55990;BME280;41875;55.806;38.082;2024-03-07T07:15:21;100010.28;;;0.59;36.33
55990;BME280;41875;55.806;38.082;2024-03-07T07:18:26;100000.34;;;0.82;36.23
55990;BME280;41875;55.806;38.082;2024-03-07T07:21:31;100003.28;;;0.59;35.65
55990;BME280;41875;55.806;38.082;2024-03-07T07:24:34;99999.34;;;1.00;34.93
55990;BME280;41875;55.806;38.082;2024-03-07T07:27:39;99995.66;;;1.35;34.49
55990;BME280;41875;55.806;38.082;2024-03-07T07:30:46;99986.06;;;1.35;34.68
55990;BME280;41875;55.806;38.082;2024-03-07T07:33:51;99980.19;;;1.16;34.03
55990;BME280;41875;55.806;38.082;2024-03-07T07:36:55;99985.00;;;1.68;33.30
55990;BME280;41875;55.806;38.082;2024-03-07T07:40:00;99980.78;;;1.51;33.23
55990;BME280;41875;55.806;38.082;2024-03-07T07:43:06;99972.19;;;2.09;32.44
55990;BME280;41875;55.806;38.082;2024-03-07T07:46:16;99974.22;;;2.18;32.39
55990;BME280;41875;55.806;38.082;2024-03-07T07:49:21;99977.31;;;1.96;32.89
55990;BME280;41875;55.806;38.082;2024-03-07T07:52:25;99977.50;;;2.07;32.23
55990;BME280;41875;55.806;38.082;2024-03-07T07:55:30;99970.59;;;2.21;32.15
55990;BME280;41875;55.806;38.082;2024-03-07T07:58:35;99962.91;;;2.47;31.68
55990;BME280;41875;55.806;38.082;2024-03-07T08:01:42;99964.44;;;2.07;32.11
55990;BME280;41875;55.806;38.082;2024-03-07T08:04:46;99970.59;;;2.21;32.54
55990;BME280;41875;55.806;38.082;2024-03-07T08:07:52;99957.53;;;3.04;31.28
55990;BME280;41875;55.806;38.082;2024-03-07T08:10:57;99953.41;;;2.73;31.50
55990;BME280;41875;55.806;38.082;2024-03-07T08:14:02;99953.47;;;2.44;33.26
55990;BME280;41875;55.806;38.082;2024-03-07T08:17:08;99950.31;;;1.66;33.47
55990;BME280;41875;55.806;38.082;2024-03-07T08:20:14;99947.72;;;2.24;33.84
55990;BME280;41875;55.806;38.082;2024-03-07T08:23:19;99935.50;;;1.96;33.69
55990;BME280;41875;55.806;38.082;2024-03-07T08:26:23;99947.16;;;2.19;33.73
55990;BME280;41875;55.806;38.082;2024-03-07T08:29:28;99939.06;;;2.93;32.39
55990;BME280;41875;55.806;38.082;2024-03-07T08:32:35;99942.34;;;3.50;31.85
55990;BME280;41875;55.806;38.082;2024-03-07T08:35:41;99944.56;;;3.82;31.94
55990;BME280;41875;55.806;38.082;2024-03-07T08:38:46;99940.56;;;3.63;31.62
55990;BME280;41875;55.806;38.082;2024-03-07T08:41:50;99936.16;;;3.11;33.60
55990;BME280;41875;55.806;38.082;2024-03-07T08:44:55;99936.25;;;4.01;31.93
55990;BME280;41875;55.806;38.082;2024-03-07T08:48:02;99926.72;;;3.87;32.12
55990;BME280;41875;55.806;38.082;2024-03-07T08:51:08;99924.41;;;3.44;33.24
55990;BME280;41875;55.806;38.082;2024-03-07T08:54:13;99919.69;;;3.36;33.68
55990;BME280;41875;55.806;38.082;2024-03-07T08:57:18;99917.81;;;3.38;34.47
55990;BME280;41875;55.806;38.082;2024-03-07T09:00:25;99913.03;;;3.04;34.81
55990;BME280;41875;55.806;38.082;2024-03-07T09:03:32;99911.63;;;3.39;34.70
55990;BME280;41875;55.806;38.082;2024-03-07T09:06:36;99903.44;;;3.18;34.47
55990;BME280;41875;55.806;38.082;2024-03-07T09:09:41;99914.09;;;3.15;35.05
55990;BME280;41875;55.806;38.082;2024-03-07T09:12:50;99902.63;;;2.06;37.12
55990;BME280;41875;55.806;38.082;2024-03-07T09:15:55;99899.19;;;2.20;37.66
55990;BME280;41875;55.806;38.082;2024-03-07T09:19:01;99903.56;;;2.62;36.61
55990;BME280;41875;55.806;38.082;2024-03-07T09:22:07;99886.50;;;2.56;36.70
55990;BME280;41875;55.806;38.082;2024-03-07T09:25:12;99891.38;;;2.75;36.24
55990;BME280;41875;55.806;38.082;2024-03-07T09:28:20;99893.72;;;2.65;36.70
55990;BME280;41875;55.806;38.082;2024-03-07T09:31:25;99890.56;;;3.79;35.53
55990;BME280;41875;55.806;38.082;2024-03-07T09:34:31;99883.97;;;3.48;35.20
55990;BME280;41875;55.806;38.082;2024-03-07T09:37:36;99886.63;;;2.95;35.97
55990;BME280;41875;55.806;38.082;2024-03-07T09:40:41;99884.81;;;3.61;35.18
55990;BME280;41875;55.806;38.082;2024-03-07T09:43:46;99871.38;;;4.29;34.18
55990;BME280;41875;55.806;38.082;2024-03-07T09:46:54;99873.81;;;4.56;33.34
55990;BME280;41875;55.806;38.082;2024-03-07T09:50:01;99888.13;;;2.71;36.47
55990;BME280;41875;55.806;38.082;2024-03-07T09:53:11;99883.09;;;3.09;36.48
55990;BME280;41875;55.806;38.082;2024-03-07T09:56:17;99880.22;;;2.86;36.65
55990;BME280;41875;55.806;38.082;2024-03-07T09:59:24;99881.94;;;4.03;34.48
55990;BME280;41875;55.806;38.082;2024-03-07T10:02:39;99884.63;;;3.77;34.88
55990;BME280;41875;55.806;38.082;2024-03-07T10:05:46;99879.66;;;3.86;35.26
55990;BME280;41875;55.806;38.082;2024-03-07T10:08:51;99889.13;;;3.75;35.47
55990;BME280;41875;55.806;38.082;2024-03-07T10:11:57;99878.59;;;4.14;35.20
55990;BME280;41875;55.806;38.082;2024-03-07T10:15:03;99873.75;;;4.08;35.16
55990;BME280;41875;55.806;38.082;2024-03-07T10:18:08;99871.28;;;3.93;34.74
55990;BME280;41875;55.806;38.082;2024-03-07T10:21:18;99875.78;;;3.78;34.71
55990;BME280;41875;55.806;38.082;2024-03-07T10:24:24;99877.44;;;4.05;34.40
55990;BME280;41875;55.806;38.082;2024-03-07T10:27:29;99862.59;;;4.17;34.09
55990;BME280;41875;55.806;38.082;2024-03-07T10:30:40;99873.16;;;2.73;36.32
55990;BME280;41875;55.806;38.082;2024-03-07T10:33:44;99882.78;;;3.13;35.84
55990;BME280;41875;55.806;38.082;2024-03-07T10:36:55;99863.44;;;3.42;35.91
55990;BME280;41875;55.806;38.082;2024-03-07T10:39:59;99864.38;;;3.28;35.88
55990;BME280;41875;55.806;38.082;2024-03-07T10:43:09;99854.72;;;3.93;35.14
55990;BME280;41875;55.806;38.082;2024-03-07T10:46:15;99844.03;;;4.20;34.73
55990;BME280;41875;55.806;38.082;2024-03-07T10:49:25;99848.97;;;3.10;35.75
55990;BME280;41875;55.806;38.082;2024-03-07T10:52:38;99845.84;;;4.20;34.76
55990;BME280;41875;55.806;38.082;2024-03-07T10:55:53;99843.09;;;3.58;35.24
55990;BME280;41875;55.806;38.082;2024-03-07T10:59:10;99843.00;;;3.47;35.42
55990;BME280;41875;55.806;38.082;2024-03-07T11:02:27;99834.50;;;3.82;35.03
55990;BME280;41875;55.806;38.082;2024-03-07T11:05:36;99838.34;;;4.02;34.99
55990;BME280;41875;55.806;38.082;2024-03-07T11:08:48;99835.69;;;3.52;35.71
55990;BME280;41875;55.806;38.082;2024-03-07T11:11:55;99836.38;;;3.93;34.73
55990;BME280;41875;55.806;38.082;2024-03-07T11:15:01;99823.78;;;4.22;34.40
55990;BME280;41875;55.806;38.082;2024-03-07T11:18:09;99813.16;;;4.72;33.82
55990;BME280;41875;55.806;38.082;2024-03-07T11:21:42;99811.41;;;4.24;34.25
55990;BME280;41875;55.806;38.082;2024-03-07T11:25:00;99806.44;;;4.57;34.13
55990;BME280;41875;55.806;38.082;2024-03-07T11:28:16;99801.94;;;4.70;33.66
55990;BME280;41875;55.806;38.082;2024-03-07T11:31:26;99811.97;;;4.65;33.76
55990;BME280;41875;55.806;38.082;2024-03-07T11:34:30;99800.59;;;5.00;33.58
55990;BME280;41875;55.806;38.082;2024-03-07T11:37:38;99799.56;;;4.67;33.50
55990;BME280;41875;55.806;38.082;2024-03-07T11:40:58;99799.41;;;4.33;34.05
55990;BME280;41875;55.806;38.082;2024-03-07T11:44:09;99792.53;;;4.43;34.35
55990;BME280;41875;55.806;38.082;2024-03-07T11:47:16;99795.59;;;3.89;34.51
55990;BME280;41875;55.806;38.082;2024-03-07T11:50:21;99805.91;;;3.66;35.04
55990;BME280;41875;55.806;38.082;2024-03-07T11:53:28;99796.56;;;4.36;34.37
55990;BME280;41875;55.806;38.082;2024-03-07T11:56:36;99791.16;;;4.02;34.66
55990;BME280;41875;55.806;38.082;2024-03-07T11:59:40;99787.69;;;3.64;35.14
55990;BME280;41875;55.806;38.082;2024-03-07T12:02:47;99783.31;;;3.89;35.11
55990;BME280;41875;55.806;38.082;2024-03-07T12:05:52;99790.09;;;3.55;35.05
55990;BME280;41875;55.806;38.082;2024-03-07T12:08:57;99781.22;;;3.31;36.50
55990;BME280;41875;55.806;38.082;2024-03-07T12:12:18;99775.47;;;4.14;35.05
55990;BME280;41875;55.806;38.082;2024-03-07T12:15:24;99771.09;;;4.85;34.14
55990;BME280;41875;55.806;38.082;2024-03-07T12:18:28;99770.41;;;4.23;34.40
55990;BME280;41875;55.806;38.082;2024-03-07T12:21:33;99767.22;;;4.67;33.60
55990;BME280;41875;55.806;38.082;2024-03-07T12:24:38;99766.50;;;4.65;33.71
55990;BME280;41875;55.806;38.082;2024-03-07T12:27:45;99756.66;;;4.80;34.20
55990;BME280;41875;55.806;38.082;2024-03-07T12:30:50;99762.16;;;4.17;34.31
55990;BME280;41875;55.806;38.082;2024-03-07T12:33:54;99756.06;;;3.92;34.73
55990;BME280;41875;55.806;38.082;2024-03-07T12:36:58;99748.81;;;4.44;34.49
55990;BME280;41875;55.806;38.082;2024-03-07T12:40:12;99739.31;;;4.66;34.05
55990;BME280;41875;55.806;38.082;2024-03-07T12:43:22;99743.25;;;4.71;34.23
55990;BME280;41875;55.806;38.082;2024-03-07T12:46:26;99746.44;;;4.52;33.92
55990;BME280;41875;55.806;38.082;2024-03-07T12:49:31;99744.47;;;4.79;34.12
55990;BME280;41875;55.806;38.082;2024-03-07T12:52:35;99741.84;;;4.79;33.84
55990;BME280;41875;55.806;38.082;2024-03-07T12:55:41;99734.13;;;4.88;33.99
55990;BME280;41875;55.806;38.082;2024-03-07T12:58:48;99739.03;;;5.16;33.68
55990;BME280;41875;55.806;38.082;2024-03-07T13:01:53;99730.25;;;4.23;34.62
55990;BME280;41875;55.806;38.082;2024-03-07T13:04:59;99725.84;;;4.70;32.80
55990;BME280;41875;55.806;38.082;2024-03-07T13:08:05;99720.00;;;4.67;33.76
55990;BME280;41875;55.806;38.082;2024-03-07T13:11:11;99727.78;;;4.68;33.41
55990;BME280;41875;55.806;38.082;2024-03-07T13:14:16;99717.97;;;4.70;33.04
55990;BME280;41875;55.806;38.082;2024-03-07T13:17:19;99718.28;;;4.43;33.53
55990;BME280;41875;55.806;38.082;2024-03-07T13:20:26;99716.03;;;4.61;33.54
55990;BME280;41875;55.806;38.082;2024-03-07T13:23:29;99714.66;;;4.68;33.43
55990;BME280;41875;55.806;38.082;2024-03-07T13:26:35;99712.63;;;4.95;33.36
55990;BME280;41875;55.806;38.082;2024-03-07T13:29:40;99710.06;;;4.59;33.38
55990;BME280;41875;55.806;38.082;2024-03-07T13:32:44;99712.81;;;4.46;33.38
55990;BME280;41875;55.806;38.082;2024-03-07T13:35:49;99711.91;;;3.99;33.55
55990;BME280;41875;55.806;38.082;2024-03-07T13:38:54;99708.63;;;3.95;33.66
55990;BME280;41875;55.806;38.082;2024-03-07T13:42:00;99702.28;;;3.62;33.77
55990;BME280;41875;55.806;38.082;2024-03-07T13:45:05;99713.31;;;3.78;34.68
55990;BME280;41875;55.806;38.082;2024-03-07T13:48:15;99705.75;;;4.11;34.33
55990;BME280;41875;55.806;38.082;2024-03-07T13:51:22;99708.56;;;4.32;34.30
55990;BME280;41875;55.806;38.082;2024-03-07T13:54:39;99710.66;;;4.16;34.36
55990;BME280;41875;55.806;38.082;2024-03-07T13:57:46;99714.63;;;4.33;34.07
55990;BME280;41875;55.806;38.082;2024-03-07T14:01:02;99703.84;;;4.13;34.55
55990;BME280;41875;55.806;38.082;2024-03-07T14:04:43;99699.06;;;4.07;35.73
55990;BME280;41875;55.806;38.082;2024-03-07T14:08:00;99687.34;;;4.00;34.94
55990;BME280;41875;55.806;38.082;2024-03-07T14:11:41;99688.56;;;4.07;34.02
55990;BME280;41875;55.806;38.082;2024-03-07T14:15:24;99682.03;;;4.12;34.54
55990;BME280;41875;55.806;38.082;2024-03-07T14:22:47;99676.13;;;4.22;34.26
55990;BME280;41875;55.806;38.082;2024-03-07T14:29:39;99681.44;;;3.85;34.98
55990;BME280;41875;55.806;38.082;2024-03-07T14:32:46;99680.97;;;3.29;35.17
55990;BME280;41875;55.806;38.082;2024-03-07T14:36:05;99680.50;;;3.24;36.20
55990;BME280;41875;55.806;38.082;2024-03-07T14:39:12;99675.88;;;3.15;35.69
55990;BME280;41875;55.806;38.082;2024-03-07T14:42:17;99682.66;;;3.30;35.67
55990;BME280;41875;55.806;38.082;2024-03-07T14:45:25;99679.34;;;2.89;36.18
55990;BME280;41875;55.806;38.082;2024-03-07T14:48:30;99676.94;;;3.12;36.10
55990;BME280;41875;55.806;38.082;2024-03-07T14:51:35;99673.59;;;2.97;35.92
55990;BME280;41875;55.806;38.082;2024-03-07T14:54:57;99665.94;;;3.07;36.48
55990;BME280;41875;55.806;38.082;2024-03-07T14:58:02;99663.53;;;3.04;35.81
55990;BME280;41875;55.806;38.082;2024-03-07T15:01:08;99671.31;;;2.93;36.21
55990;BME280;41875;55.806;38.082;2024-03-07T15:04:12;99670.34;;;2.81;36.15
55990;BME280;41875;55.806;38.082;2024-03-07T15:07:17;99663.03;;;2.73;36.11
55990;BME280;41875;55.806;38.082;2024-03-07T15:10:28;99664.19;;;2.56;36.67
55990;BME280;41875;55.806;38.082;2024-03-07T15:13:33;99663.47;;;2.54;36.50
55990;BME280;41875;55.806;38.082;2024-03-07T15:16:38;99662.28;;;2.45;36.65
55990;BME280;41875;55.806;38.082;2024-03-07T15:19:42;99660.31;;;2.36;36.83
55990;BME280;41875;55.806;38.082;2024-03-07T15:22:46;99660.81;;;2.28;37.01
55990;BME280;41875;55.806;38.082;2024-03-07T15:25:51;99657.44;;;2.13;37.33
55990;BME280;41875;55.806;38.082;2024-03-07T15:28:55;99655.81;;;1.97;37.38
55990;BME280;41875;55.806;38.082;2024-03-07T15:31:59;99661.13;;;1.83;37.66
55990;BME280;41875;55.806;38.082;2024-03-07T15:35:06;99665.41;;;1.84;37.67
55990;BME280;41875;55.806;38.082;2024-03-07T15:38:11;99664.22;;;1.75;38.00
55990;BME280;41875;55.806;38.082;2024-03-07T15:41:18;99659.75;;;1.77;37.42
55990;BME280;41875;55.806;38.082;2024-03-07T15:44:22;99650.88;;;1.80;37.71
55990;BME280;41875;55.806;38.082;2024-03-07T15:47:27;99648.41;;;1.64;37.74
55990;BME280;41875;55.806;38.082;2024-03-07T15:50:34;99658.63;;;1.40;38.88
55990;BME280;41875;55.806;38.082;2024-03-07T15:53:39;99653.41;;;1.40;37.95
55990;BME280;41875;55.806;38.082;2024-03-07T15:56:46;99658.25;;;1.46;37.71
55990;BME280;41875;55.806;38.082;2024-03-07T15:59:53;99657.66;;;1.55;37.29
55990;BME280;41875;55.806;38.082;2024-03-07T16:02:58;99656.88;;;1.40;38.23
55990;BME280;41875;55.806;38.082;2024-03-07T16:06:02;99650.41;;;1.04;38.50
55990;BME280;41875;55.806;38.082;2024-03-07T16:09:09;99651.81;;;0.95;38.27
55990;BME280;41875;55.806;38.082;2024-03-07T16:12:17;99647.91;;;1.02;37.90
55990;BME280;41875;55.806;38.082;2024-03-07T16:15:21;99645.47;;;1.14;37.82
55990;BME280;41875;55.806;38.082;2024-03-07T16:18:42;99648.06;;;1.14;37.98
55990;BME280;41875;55.806;38.082;2024-03-07T16:21:46;99658.06;;;0.93;38.30
55990;BME280;41875;55.806;38.082;2024-03-07T16:24:54;99657.13;;;0.94;38.31